Terminal Aerodrome Forecast
Issued by NWS Salt Lake City, UT

Home | Current Version | Previous Version | Text Only | Print | Product List | Glossary On
Versions: 1 2 3 4 5 6 7 8 9 10 11 12 13 14 15 16 17 18 19 20 21 22 23 24 25 26 27 28 29 30 31 32
000
FTUS45 KSLC 100520
TAFSLC
TAF
KSLC 100520Z 1006/1112 35005KT 6SM BR SCT100 BKN150
     FM100700 16011KT 6SM BR SCT100 BKN150
     FM101400 16011G18KT P6SM VCSH BKN060 OVC090
     FM101900 16014KT 6SM -RA BKN050 OVC080
     FM110300 32013KT 4SM -RASN BKN030 OVC050=

USA.gov is the U.S. government's official web portal to all federal, state and local government web resources and services.